sensor_id;sensor_type;location;lat;lon;timestamp;temperature;humidity
5554;DHT22;2800;49.528;8.666;2023-02-01T00:01:36;4.60;99.90
5554;DHT22;2800;49.528;8.666;2023-02-01T00:04:01;4.70;99.90
5554;DHT22;2800;49.528;8.666;2023-02-01T00:06:27;4.70;99.90
5554;DHT22;2800;49.528;8.666;2023-02-01T00:08:53;4.70;99.90
5554;DHT22;2800;49.528;8.666;2023-02-01T00:11:19;4.70;99.90
5554;DHT22;2800;49.528;8.666;2023-02-01T00:13:45;4.70;99.90
5554;DHT22;2800;49.528;8.666;2023-02-01T00:18:42;4.80;99.90
5554;DHT22;2800;49.528;8.666;2023-02-01T00:21:08;4.80;99.90
5554;DHT22;2800;49.528;8.666;2023-02-01T00:23:36;4.90;99.90
5554;DHT22;2800;49.528;8.666;2023-02-01T00:26:03;4.90;99.90
5554;DHT22;2800;49.528;8.666;2023-02-01T00:28:29;5.00;99.90
5554;DHT22;2800;49.528;8.666;2023-02-01T00:30:58;5.00;99.90
5554;DHT22;2800;49.528;8.666;2023-02-01T00:33:24;5.00;99.90
5554;DHT22;2800;49.528;8.666;2023-02-01T00:35:50;5.00;99.90
5554;DHT22;2800;49.528;8.666;2023-02-01T00:38:16;5.00;99.90
5554;DHT22;2800;49.528;8.666;2023-02-01T00:40:41;5.00;99.90
5554;DHT22;2800;49.528;8.666;2023-02-01T00:43:07;4.90;99.90
5554;DHT22;2800;49.528;8.666;2023-02-01T00:45:32;4.90;99.90
5554;DHT22;2800;49.528;8.666;2023-02-01T00:47:58;4.90;99.90
5554;DHT22;2800;49.528;8.666;2023-02-01T00:50:23;4.90;99.90
5554;DHT22;2800;49.528;8.666;2023-02-01T00:52:49;5.00;99.90
5554;DHT22;2800;49.528;8.666;2023-02-01T00:55:14;5.00;99.90
5554;DHT22;2800;49.528;8.666;2023-02-01T00:57:40;5.00;99.90
5554;DHT22;2800;49.528;8.666;2023-02-01T01:00:05;5.00;99.90
5554;DHT22;2800;49.528;8.666;2023-02-01T01:02:31;4.90;99.90
5554;DHT22;2800;49.528;8.666;2023-02-01T01:04:57;4.90;99.90
5554;DHT22;2800;49.528;8.666;2023-02-01T01:07:22;4.90;99.90
5554;DHT22;2800;49.528;8.666;2023-02-01T01:09:48;4.90;99.90
5554;DHT22;2800;49.528;8.666;2023-02-01T01:12:13;4.90;99.90
5554;DHT22;2800;49.528;8.666;2023-02-01T01:14:39;4.90;99.90
5554;DHT22;2800;49.528;8.666;2023-02-01T01:17:04;4.90;99.90
5554;DHT22;2800;49.528;8.666;2023-02-01T01:19:30;4.90;99.90
5554;DHT22;2800;49.528;8.666;2023-02-01T01:21:55;4.90;99.90
5554;DHT22;2800;49.528;8.666;2023-02-01T01:24:20;4.90;99.90
5554;DHT22;2800;49.528;8.666;2023-02-01T01:26:46;4.90;99.90
5554;DHT22;2800;49.528;8.666;2023-02-01T01:29:11;4.90;99.90
5554;DHT22;2800;49.528;8.666;2023-02-01T01:31:37;4.90;99.90
5554;DHT22;2800;49.528;8.666;2023-02-01T01:34:02;5.00;99.90
5554;DHT22;2800;49.528;8.666;2023-02-01T01:36:29;4.90;99.90
5554;DHT22;2800;49.528;8.666;2023-02-01T01:38:54;5.00;99.90
5554;DHT22;2800;49.528;8.666;2023-02-01T01:41:23;5.00;99.90
5554;DHT22;2800;49.528;8.666;2023-02-01T01:44:04;5.00;99.90
5554;DHT22;2800;49.528;8.666;2023-02-01T01:46:32;4.90;99.90
5554;DHT22;2800;49.528;8.666;2023-02-01T01:49:11;5.00;99.90
5554;DHT22;2800;49.528;8.666;2023-02-01T01:51:42;5.00;99.90
5554;DHT22;2800;49.528;8.666;2023-02-01T01:54:13;4.90;99.90
5554;DHT22;2800;49.528;8.666;2023-02-01T01:56:42;4.90;99.90
5554;DHT22;2800;49.528;8.666;2023-02-01T01:59:10;5.00;99.90
5554;DHT22;2800;49.528;8.666;2023-02-01T02:01:35;5.00;99.90
5554;DHT22;2800;49.528;8.666;2023-02-01T02:04:01;5.00;99.90
5554;DHT22;2800;49.528;8.666;2023-02-01T02:06:51;5.00;99.90
5554;DHT22;2800;49.528;8.666;2023-02-01T02:09:18;5.00;99.90
5554;DHT22;2800;49.528;8.666;2023-02-01T02:11:44;5.00;99.90
5554;DHT22;2800;49.528;8.666;2023-02-01T02:14:11;5.00;99.90
5554;DHT22;2800;49.528;8.666;2023-02-01T02:17:04;5.00;99.90
5554;DHT22;2800;49.528;8.666;2023-02-01T02:31:16;4.90;99.90
5554;DHT22;2800;49.528;8.666;2023-02-01T02:39:39;4.80;99.90
5554;DHT22;2800;49.528;8.666;2023-02-01T02:42:21;4.80;99.90
5554;DHT22;2800;49.528;8.666;2023-02-01T02:45:23;4.80;99.90
5554;DHT22;2800;49.528;8.666;2023-02-01T02:48:27;4.80;99.90
5554;DHT22;2800;49.528;8.666;2023-02-01T02:51:05;4.70;99.90
5554;DHT22;2800;49.528;8.666;2023-02-01T02:56:53;4.80;99.90
5554;DHT22;2800;49.528;8.666;2023-02-01T02:59:40;4.70;99.90
5554;DHT22;2800;49.528;8.666;2023-02-01T03:02:27;4.70;99.90
5554;DHT22;2800;49.528;8.666;2023-02-01T03:05:11;4.80;99.90
5554;DHT22;2800;49.528;8.666;2023-02-01T03:08:04;4.80;99.90
5554;DHT22;2800;49.528;8.666;2023-02-01T03:10:57;4.70;99.90
5554;DHT22;2800;49.528;8.666;2023-02-01T03:15:56;4.80;99.90
5554;DHT22;2800;49.528;8.666;2023-02-01T03:18:42;4.80;99.90
5554;DHT22;2800;49.528;8.666;2023-02-01T03:21:23;4.80;99.90
5554;DHT22;2800;49.528;8.666;2023-02-01T03:23:51;4.80;99.90
5554;DHT22;2800;49.528;8.666;2023-02-01T03:26:19;4.80;99.90
5554;DHT22;2800;49.528;8.666;2023-02-01T03:29:00;4.80;99.90
5554;DHT22;2800;49.528;8.666;2023-02-01T03:31:27;4.80;99.90
5554;DHT22;2800;49.528;8.666;2023-02-01T03:33:54;4.80;99.90
5554;DHT22;2800;49.528;8.666;2023-02-01T03:36:30;4.80;99.90
5554;DHT22;2800;49.528;8.666;2023-02-01T03:39:16;4.80;99.90
5554;DHT22;2800;49.528;8.666;2023-02-01T03:41:49;4.80;99.90
5554;DHT22;2800;49.528;8.666;2023-02-01T03:44:28;4.70;99.90
5554;DHT22;2800;49.528;8.666;2023-02-01T03:47:14;4.70;99.90
5554;DHT22;2800;49.528;8.666;2023-02-01T03:49:51;4.80;99.90
5554;DHT22;2800;49.528;8.666;2023-02-01T03:52:35;4.80;99.90
5554;DHT22;2800;49.528;8.666;2023-02-01T03:55:03;4.80;99.90
5554;DHT22;2800;49.528;8.666;2023-02-01T03:57:33;4.80;99.90
5554;DHT22;2800;49.528;8.666;2023-02-01T04:00:06;4.80;99.90
5554;DHT22;2800;49.528;8.666;2023-02-01T04:02:33;4.70;99.90
5554;DHT22;2800;49.528;8.666;2023-02-01T04:04:59;4.80;99.90
5554;DHT22;2800;49.528;8.666;2023-02-01T04:07:24;4.80;99.90
5554;DHT22;2800;49.528;8.666;2023-02-01T04:09:50;4.80;99.90
5554;DHT22;2800;49.528;8.666;2023-02-01T04:12:15;4.80;99.90
5554;DHT22;2800;49.528;8.666;2023-02-01T04:14:40;4.80;99.90
5554;DHT22;2800;49.528;8.666;2023-02-01T04:17:06;4.80;99.90
5554;DHT22;2800;49.528;8.666;2023-02-01T04:19:31;4.80;99.90
5554;DHT22;2800;49.528;8.666;2023-02-01T04:21:57;4.80;99.90
5554;DHT22;2800;49.528;8.666;2023-02-01T04:24:22;4.80;99.90
5554;DHT22;2800;49.528;8.666;2023-02-01T04:26:48;4.80;99.90
5554;DHT22;2800;49.528;8.666;2023-02-01T04:29:13;4.80;99.90
5554;DHT22;2800;49.528;8.666;2023-02-01T04:31:39;4.80;99.90
5554;DHT22;2800;49.528;8.666;2023-02-01T04:34:05;4.70;99.90
5554;DHT22;2800;49.528;8.666;2023-02-01T04:36:30;4.70;99.90
5554;DHT22;2800;49.528;8.666;2023-02-01T04:38:56;4.80;99.90
5554;DHT22;2800;49.528;8.666;2023-02-01T04:41:21;4.80;99.90
5554;DHT22;2800;49.528;8.666;2023-02-01T04:43:49;4.80;99.90
5554;DHT22;2800;49.528;8.666;2023-02-01T04:46:15;4.80;99.90
5554;DHT22;2800;49.528;8.666;2023-02-01T04:48:41;4.80;99.90
5554;DHT22;2800;49.528;8.666;2023-02-01T04:51:07;4.80;99.90
5554;DHT22;2800;49.528;8.666;2023-02-01T04:53:32;4.80;99.90
5554;DHT22;2800;49.528;8.666;2023-02-01T04:55:58;4.80;99.90
5554;DHT22;2800;49.528;8.666;2023-02-01T04:58:23;4.80;99.90
5554;DHT22;2800;49.528;8.666;2023-02-01T05:00:49;4.80;99.90
5554;DHT22;2800;49.528;8.666;2023-02-01T05:03:15;4.80;99.90
5554;DHT22;2800;49.528;8.666;2023-02-01T05:05:40;4.80;99.90
5554;DHT22;2800;49.528;8.666;2023-02-01T05:08:06;4.80;99.90
5554;DHT22;2800;49.528;8.666;2023-02-01T05:10:31;4.80;99.90
5554;DHT22;2800;49.528;8.666;2023-02-01T05:12:57;4.80;99.90
5554;DHT22;2800;49.528;8.666;2023-02-01T05:15:41;4.80;99.90
5554;DHT22;2800;49.528;8.666;2023-02-01T05:18:07;4.80;99.90
5554;DHT22;2800;49.528;8.666;2023-02-01T05:20:32;4.70;99.90
5554;DHT22;2800;49.528;8.666;2023-02-01T05:22:58;4.70;99.90
5554;DHT22;2800;49.528;8.666;2023-02-01T05:25:23;4.70;99.90
5554;DHT22;2800;49.528;8.666;2023-02-01T05:27:49;4.60;99.90
5554;DHT22;2800;49.528;8.666;2023-02-01T05:30:15;4.70;99.90
5554;DHT22;2800;49.528;8.666;2023-02-01T05:32:40;4.80;99.90
5554;DHT22;2800;49.528;8.666;2023-02-01T05:35:06;4.80;99.90
5554;DHT22;2800;49.528;8.666;2023-02-01T05:37:32;4.80;99.90
5554;DHT22;2800;49.528;8.666;2023-02-01T05:39:57;4.80;99.90
5554;DHT22;2800;49.528;8.666;2023-02-01T05:42:23;4.70;99.90
5554;DHT22;2800;49.528;8.666;2023-02-01T05:44:48;4.70;99.90
5554;DHT22;2800;49.528;8.666;2023-02-01T05:47:14;4.70;99.90
5554;DHT22;2800;49.528;8.666;2023-02-01T05:49:40;4.70;99.90
5554;DHT22;2800;49.528;8.666;2023-02-01T05:52:05;4.70;99.90
5554;DHT22;2800;49.528;8.666;2023-02-01T05:54:31;4.70;99.90
5554;DHT22;2800;49.528;8.666;2023-02-01T05:56:56;4.80;99.90
5554;DHT22;2800;49.528;8.666;2023-02-01T05:59:22;4.80;99.90
5554;DHT22;2800;49.528;8.666;2023-02-01T06:01:47;4.80;99.90
5554;DHT22;2800;49.528;8.666;2023-02-01T06:04:13;4.80;99.90
5554;DHT22;2800;49.528;8.666;2023-02-01T06:06:38;4.80;99.90
5554;DHT22;2800;49.528;8.666;2023-02-01T06:09:04;4.80;99.90
5554;DHT22;2800;49.528;8.666;2023-02-01T06:11:29;4.80;99.90
5554;DHT22;2800;49.528;8.666;2023-02-01T06:13:56;4.80;99.90
5554;DHT22;2800;49.528;8.666;2023-02-01T06:16:22;4.70;99.90
5554;DHT22;2800;49.528;8.666;2023-02-01T06:18:48;4.80;99.90
5554;DHT22;2800;49.528;8.666;2023-02-01T06:21:14;4.80;99.90
5554;DHT22;2800;49.528;8.666;2023-02-01T06:23:52;4.80;99.90
5554;DHT22;2800;49.528;8.666;2023-02-01T06:26:18;4.80;99.90
5554;DHT22;2800;49.528;8.666;2023-02-01T06:28:43;4.80;99.90
5554;DHT22;2800;49.528;8.666;2023-02-01T06:31:09;4.70;99.90
5554;DHT22;2800;49.528;8.666;2023-02-01T06:33:35;4.70;99.90
5554;DHT22;2800;49.528;8.666;2023-02-01T06:36:01;4.80;99.90
5554;DHT22;2800;49.528;8.666;2023-02-01T06:38:29;4.80;99.90
5554;DHT22;2800;49.528;8.666;2023-02-01T06:40:56;4.80;99.90
5554;DHT22;2800;49.528;8.666;2023-02-01T06:43:23;4.70;99.90
5554;DHT22;2800;49.528;8.666;2023-02-01T06:45:49;4.70;99.90
5554;DHT22;2800;49.528;8.666;2023-02-01T06:48:15;4.70;99.90
5554;DHT22;2800;49.528;8.666;2023-02-01T06:50:40;4.70;99.90
5554;DHT22;2800;49.528;8.666;2023-02-01T06:53:06;4.70;99.90
5554;DHT22;2800;49.528;8.666;2023-02-01T06:55:31;4.80;99.90
5554;DHT22;2800;49.528;8.666;2023-02-01T06:57:57;4.70;99.90
5554;DHT22;2800;49.528;8.666;2023-02-01T07:00:22;4.70;99.90
5554;DHT22;2800;49.528;8.666;2023-02-01T07:02:48;4.70;99.90
5554;DHT22;2800;49.528;8.666;2023-02-01T07:05:14;4.70;99.90
5554;DHT22;2800;49.528;8.666;2023-02-01T07:07:40;4.70;99.90
5554;DHT22;2800;49.528;8.666;2023-02-01T07:10:05;4.70;99.90
5554;DHT22;2800;49.528;8.666;2023-02-01T07:12:31;4.70;99.90
5554;DHT22;2800;49.528;8.666;2023-02-01T07:14:57;4.70;99.90
5554;DHT22;2800;49.528;8.666;2023-02-01T07:17:23;4.70;99.90
5554;DHT22;2800;49.528;8.666;2023-02-01T07:19:48;4.70;99.90
5554;DHT22;2800;49.528;8.666;2023-02-01T07:22:16;4.80;99.90
5554;DHT22;2800;49.528;8.666;2023-02-01T07:24:42;4.80;99.90
5554;DHT22;2800;49.528;8.666;2023-02-01T07:27:08;4.80;99.90
5554;DHT22;2800;49.528;8.666;2023-02-01T07:29:33;4.90;99.90
5554;DHT22;2800;49.528;8.666;2023-02-01T07:31:59;4.90;99.90
5554;DHT22;2800;49.528;8.666;2023-02-01T07:34:25;4.90;99.90
5554;DHT22;2800;49.528;8.666;2023-02-01T07:36:51;4.90;99.90
5554;DHT22;2800;49.528;8.666;2023-02-01T07:39:16;4.90;99.90
5554;DHT22;2800;49.528;8.666;2023-02-01T07:41:42;4.90;99.90
5554;DHT22;2800;49.528;8.666;2023-02-01T07:44:07;5.00;99.90
5554;DHT22;2800;49.528;8.666;2023-02-01T07:46:33;5.00;99.90
5554;DHT22;2800;49.528;8.666;2023-02-01T07:48:58;5.00;99.90
5554;DHT22;2800;49.528;8.666;2023-02-01T07:51:24;5.10;99.90
5554;DHT22;2800;49.528;8.666;2023-02-01T07:53:50;5.10;99.90
5554;DHT22;2800;49.528;8.666;2023-02-01T07:56:17;5.00;99.90
5554;DHT22;2800;49.528;8.666;2023-02-01T07:58:46;5.10;99.90
5554;DHT22;2800;49.528;8.666;2023-02-01T08:01:16;5.10;99.90
5554;DHT22;2800;49.528;8.666;2023-02-01T08:03:48;5.10;99.90
5554;DHT22;2800;49.528;8.666;2023-02-01T08:06:14;5.10;99.90
5554;DHT22;2800;49.528;8.666;2023-02-01T08:08:39;5.10;99.90
5554;DHT22;2800;49.528;8.666;2023-02-01T08:11:06;5.10;99.90
5554;DHT22;2800;49.528;8.666;2023-02-01T08:13:33;5.10;99.90
5554;DHT22;2800;49.528;8.666;2023-02-01T08:16:04;5.20;99.90
5554;DHT22;2800;49.528;8.666;2023-02-01T08:18:30;5.20;99.90
5554;DHT22;2800;49.528;8.666;2023-02-01T08:20:56;5.20;99.90
5554;DHT22;2800;49.528;8.666;2023-02-01T08:23:22;5.20;99.90
5554;DHT22;2800;49.528;8.666;2023-02-01T08:25:48;5.20;99.90
5554;DHT22;2800;49.528;8.666;2023-02-01T08:28:14;5.20;99.90
5554;DHT22;2800;49.528;8.666;2023-02-01T08:30:40;5.20;99.90
5554;DHT22;2800;49.528;8.666;2023-02-01T08:33:07;5.20;99.90
5554;DHT22;2800;49.528;8.666;2023-02-01T08:35:35;5.30;99.90
5554;DHT22;2800;49.528;8.666;2023-02-01T08:38:01;5.30;99.90
5554;DHT22;2800;49.528;8.666;2023-02-01T08:40:26;5.40;99.90
5554;DHT22;2800;49.528;8.666;2023-02-01T08:42:52;5.40;99.90
5554;DHT22;2800;49.528;8.666;2023-02-01T08:45:25;5.40;99.90
5554;DHT22;2800;49.528;8.666;2023-02-01T08:47:52;5.40;99.90
5554;DHT22;2800;49.528;8.666;2023-02-01T08:50:19;5.40;99.90
5554;DHT22;2800;49.528;8.666;2023-02-01T08:52:45;5.50;99.90
5554;DHT22;2800;49.528;8.666;2023-02-01T08:55:12;5.50;99.90
5554;DHT22;2800;49.528;8.666;2023-02-01T08:57:37;5.50;99.90
5554;DHT22;2800;49.528;8.666;2023-02-01T09:00:05;5.50;99.90
5554;DHT22;2800;49.528;8.666;2023-02-01T09:02:31;5.60;99.90
5554;DHT22;2800;49.528;8.666;2023-02-01T09:04:56;5.60;99.90
5554;DHT22;2800;49.528;8.666;2023-02-01T09:07:22;5.70;99.90
5554;DHT22;2800;49.528;8.666;2023-02-01T09:09:47;5.60;99.90
5554;DHT22;2800;49.528;8.666;2023-02-01T09:12:13;5.70;99.90
5554;DHT22;2800;49.528;8.666;2023-02-01T09:14:38;5.70;99.90
5554;DHT22;2800;49.528;8.666;2023-02-01T09:17:04;5.80;99.90
5554;DHT22;2800;49.528;8.666;2023-02-01T09:19:31;5.90;99.90
5554;DHT22;2800;49.528;8.666;2023-02-01T09:21:56;6.00;99.90
5554;DHT22;2800;49.528;8.666;2023-02-01T09:24:22;6.00;99.90
5554;DHT22;2800;49.528;8.666;2023-02-01T09:26:47;6.00;99.90
5554;DHT22;2800;49.528;8.666;2023-02-01T09:29:14;6.00;99.90
5554;DHT22;2800;49.528;8.666;2023-02-01T09:31:40;5.90;99.90
5554;DHT22;2800;49.528;8.666;2023-02-01T09:34:06;5.90;99.90
5554;DHT22;2800;49.528;8.666;2023-02-01T09:36:32;5.90;99.90
5554;DHT22;2800;49.528;8.666;2023-02-01T09:38:58;5.90;99.90
5554;DHT22;2800;49.528;8.666;2023-02-01T09:45:17;5.90;99.90
5554;DHT22;2800;49.528;8.666;2023-02-01T09:47:35;6.00;99.90
5554;DHT22;2800;49.528;8.666;2023-02-01T09:50:10;6.00;99.90
5554;DHT22;2800;49.528;8.666;2023-02-01T09:55:42;6.10;99.90
5554;DHT22;2800;49.528;8.666;2023-02-01T09:58:11;6.10;99.90
5554;DHT22;2800;49.528;8.666;2023-02-01T10:00:40;6.10;99.90
5554;DHT22;2800;49.528;8.666;2023-02-01T10:03:11;6.10;99.90
5554;DHT22;2800;49.528;8.666;2023-02-01T10:14:43;6.20;99.90
5554;DHT22;2800;49.528;8.666;2023-02-01T10:20:16;6.30;99.90
5554;DHT22;2800;49.528;8.666;2023-02-01T10:22:47;6.30;99.90
5554;DHT22;2800;49.528;8.666;2023-02-01T10:25:29;6.30;99.90
5554;DHT22;2800;49.528;8.666;2023-02-01T10:27:57;6.20;99.90
5554;DHT22;2800;49.528;8.666;2023-02-01T10:30:30;6.20;99.90
5554;DHT22;2800;49.528;8.666;2023-02-01T10:33:18;6.20;99.90
5554;DHT22;2800;49.528;8.666;2023-02-01T10:35:45;6.20;99.90
5554;DHT22;2800;49.528;8.666;2023-02-01T10:38:26;6.30;99.90
5554;DHT22;2800;49.528;8.666;2023-02-01T10:40:56;6.30;99.90
5554;DHT22;2800;49.528;8.666;2023-02-01T10:43:24;6.20;99.90
5554;DHT22;2800;49.528;8.666;2023-02-01T10:45:49;6.20;99.90
5554;DHT22;2800;49.528;8.666;2023-02-01T10:48:15;6.20;99.90
5554;DHT22;2800;49.528;8.666;2023-02-01T10:50:49;6.30;99.90
5554;DHT22;2800;49.528;8.666;2023-02-01T10:53:22;6.30;99.90
5554;DHT22;2800;49.528;8.666;2023-02-01T10:55:52;6.40;99.90
5554;DHT22;2800;49.528;8.666;2023-02-01T10:58:31;6.40;99.90
5554;DHT22;2800;49.528;8.666;2023-02-01T11:01:02;6.40;99.90
5554;DHT22;2800;49.528;8.666;2023-02-01T11:03:51;6.40;99.90
5554;DHT22;2800;49.528;8.666;2023-02-01T11:06:30;6.40;99.90
5554;DHT22;2800;49.528;8.666;2023-02-01T11:09:10;6.40;99.90
5554;DHT22;2800;49.528;8.666;2023-02-01T11:16:40;6.40;99.90
5554;DHT22;2800;49.528;8.666;2023-02-01T11:19:14;6.40;99.90
5554;DHT22;2800;49.528;8.666;2023-02-01T11:21:41;6.40;99.90
5554;DHT22;2800;49.528;8.666;2023-02-01T11:24:26;6.40;99.90
5554;DHT22;2800;49.528;8.666;2023-02-01T11:26:56;6.40;99.90
5554;DHT22;2800;49.528;8.666;2023-02-01T11:29:22;6.30;99.90
5554;DHT22;2800;49.528;8.666;2023-02-01T11:31:56;6.30;99.90
5554;DHT22;2800;49.528;8.666;2023-02-01T11:34:29;6.30;99.90
5554;DHT22;2800;49.528;8.666;2023-02-01T11:36:59;6.30;99.90
5554;DHT22;2800;49.528;8.666;2023-02-01T11:39:29;6.40;99.90
5554;DHT22;2800;49.528;8.666;2023-02-01T11:42:14;6.30;99.90
5554;DHT22;2800;49.528;8.666;2023-02-01T11:44:44;6.40;99.90
5554;DHT22;2800;49.528;8.666;2023-02-01T11:47:30;6.40;99.90
5554;DHT22;2800;49.528;8.666;2023-02-01T11:50:02;6.40;99.90
5554;DHT22;2800;49.528;8.666;2023-02-01T11:52:55;6.30;99.90
5554;DHT22;2800;49.528;8.666;2023-02-01T12:01:02;6.40;99.90
5554;DHT22;2800;49.528;8.666;2023-02-01T12:11:40;6.60;99.90
5554;DHT22;2800;49.528;8.666;2023-02-01T12:22:55;6.40;99.90
5554;DHT22;2800;49.528;8.666;2023-02-01T12:28:21;6.40;99.90
5554;DHT22;2800;49.528;8.666;2023-02-01T12:31:17;6.30;99.90
5554;DHT22;2800;49.528;8.666;2023-02-01T12:36:47;6.30;99.90
5554;DHT22;2800;49.528;8.666;2023-02-01T12:39:38;6.40;99.90
5554;DHT22;2800;49.528;8.666;2023-02-01T12:42:23;6.30;99.90
5554;DHT22;2800;49.528;8.666;2023-02-01T12:45:07;6.40;99.90
5554;DHT22;2800;49.528;8.666;2023-02-01T12:47:47;6.40;99.90
5554;DHT22;2800;49.528;8.666;2023-02-01T12:50:31;6.40;99.90
5554;DHT22;2800;49.528;8.666;2023-02-01T12:53:18;6.40;99.90
5554;DHT22;2800;49.528;8.666;2023-02-01T12:55:58;6.40;99.90
5554;DHT22;2800;49.528;8.666;2023-02-01T12:58:48;6.40;99.90
5554;DHT22;2800;49.528;8.666;2023-02-01T13:01:26;6.40;99.90
5554;DHT22;2800;49.528;8.666;2023-02-01T13:06:51;6.40;99.90
5554;DHT22;2800;49.528;8.666;2023-02-01T13:11:49;6.40;99.90
5554;DHT22;2800;49.528;8.666;2023-02-01T13:14:25;6.30;99.90
5554;DHT22;2800;49.528;8.666;2023-02-01T13:17:15;6.30;99.90
5554;DHT22;2800;49.528;8.666;2023-02-01T13:20:03;6.30;99.90
5554;DHT22;2800;49.528;8.666;2023-02-01T13:22:33;6.30;99.90
5554;DHT22;2800;49.528;8.666;2023-02-01T13:25:10;6.20;99.90
5554;DHT22;2800;49.528;8.666;2023-02-01T13:27:37;6.20;99.90
5554;DHT22;2800;49.528;8.666;2023-02-01T13:30:16;6.20;99.90
5554;DHT22;2800;49.528;8.666;2023-02-01T13:33:12;6.30;99.90
5554;DHT22;2800;49.528;8.666;2023-02-01T13:38:45;6.30;99.90
5554;DHT22;2800;49.528;8.666;2023-02-01T13:41:25;6.30;99.90
5554;DHT22;2800;49.528;8.666;2023-02-01T13:43:56;6.30;99.90
5554;DHT22;2800;49.528;8.666;2023-02-01T13:46:24;6.30;99.90
5554;DHT22;2800;49.528;8.666;2023-02-01T13:48:55;6.40;99.90
5554;DHT22;2800;49.528;8.666;2023-02-01T13:51:42;6.40;99.90
5554;DHT22;2800;49.528;8.666;2023-02-01T13:54:34;6.30;99.90
5554;DHT22;2800;49.528;8.666;2023-02-01T13:57:03;6.30;99.90
5554;DHT22;2800;49.528;8.666;2023-02-01T14:13:36;6.30;99.90
5554;DHT22;2800;49.528;8.666;2023-02-01T14:21:31;6.30;99.90
5554;DHT22;2800;49.528;8.666;2023-02-01T14:36:51;6.50;99.90
5554;DHT22;2800;49.528;8.666;2023-02-01T14:39:27;6.50;99.90
5554;DHT22;2800;49.528;8.666;2023-02-01T14:41:57;6.50;99.90
5554;DHT22;2800;49.528;8.666;2023-02-01T14:44:29;6.60;99.90
5554;DHT22;2800;49.528;8.666;2023-02-01T14:52:20;6.60;99.90
5554;DHT22;2800;49.528;8.666;2023-02-01T14:54:53;6.60;99.90
5554;DHT22;2800;49.528;8.666;2023-02-01T14:57:21;6.60;99.90
5554;DHT22;2800;49.528;8.666;2023-02-01T14:59:55;6.60;99.90
5554;DHT22;2800;49.528;8.666;2023-02-01T15:02:26;6.60;99.90
5554;DHT22;2800;49.528;8.666;2023-02-01T15:04:56;6.70;99.90
5554;DHT22;2800;49.528;8.666;2023-02-01T15:07:24;6.80;99.90
5554;DHT22;2800;49.528;8.666;2023-02-01T15:09:51;6.70;99.90
5554;DHT22;2800;49.528;8.666;2023-02-01T15:12:23;6.70;99.90
5554;DHT22;2800;49.528;8.666;2023-02-01T15:15:13;6.70;99.90
5554;DHT22;2800;49.528;8.666;2023-02-01T15:17:39;6.70;99.90
5554;DHT22;2800;49.528;8.666;2023-02-01T15:22:42;6.80;99.90
5554;DHT22;2800;49.528;8.666;2023-02-01T15:25:30;6.80;99.90
5554;DHT22;2800;49.528;8.666;2023-02-01T15:27:56;6.80;99.90
5554;DHT22;2800;49.528;8.666;2023-02-01T15:30:25;6.80;99.90
5554;DHT22;2800;49.528;8.666;2023-02-01T15:32:52;6.90;99.90
5554;DHT22;2800;49.528;8.666;2023-02-01T15:35:39;6.80;99.90
5554;DHT22;2800;49.528;8.666;2023-02-01T15:41:05;6.90;99.90
5554;DHT22;2800;49.528;8.666;2023-02-01T15:43:34;6.90;99.90
5554;DHT22;2800;49.528;8.666;2023-02-01T15:46:02;6.90;99.90
5554;DHT22;2800;49.528;8.666;2023-02-01T15:48:50;6.90;99.90
5554;DHT22;2800;49.528;8.666;2023-02-01T15:51:24;6.90;99.90
5554;DHT22;2800;49.528;8.666;2023-02-01T15:53:54;7.00;99.90
5554;DHT22;2800;49.528;8.666;2023-02-01T15:56:23;7.00;99.90
5554;DHT22;2800;49.528;8.666;2023-02-01T15:58:53;6.90;99.90
5554;DHT22;2800;49.528;8.666;2023-02-01T16:01:18;6.90;99.90
5554;DHT22;2800;49.528;8.666;2023-02-01T16:03:46;6.90;99.90
5554;DHT22;2800;49.528;8.666;2023-02-01T16:08:54;6.90;99.90
5554;DHT22;2800;49.528;8.666;2023-02-01T16:11:32;6.80;99.90
5554;DHT22;2800;49.528;8.666;2023-02-01T16:13:59;6.90;99.90
5554;DHT22;2800;49.528;8.666;2023-02-01T16:16:27;6.90;99.90
5554;DHT22;2800;49.528;8.666;2023-02-01T16:18:53;6.90;99.90
5554;DHT22;2800;49.528;8.666;2023-02-01T16:21:18;6.90;99.90
5554;DHT22;2800;49.528;8.666;2023-02-01T16:23:49;6.90;99.90
5554;DHT22;2800;49.528;8.666;2023-02-01T16:26:15;6.80;99.90
5554;DHT22;2800;49.528;8.666;2023-02-01T16:28:41;6.80;99.90
5554;DHT22;2800;49.528;8.666;2023-02-01T16:31:13;6.80;99.90
5554;DHT22;2800;49.528;8.666;2023-02-01T16:33:45;6.70;99.90
5554;DHT22;2800;49.528;8.666;2023-02-01T16:36:11;6.80;99.90
5554;DHT22;2800;49.528;8.666;2023-02-01T16:38:38;6.70;99.90
5554;DHT22;2800;49.528;8.666;2023-02-01T16:41:04;6.70;99.90
5554;DHT22;2800;49.528;8.666;2023-02-01T16:43:30;6.80;99.90
5554;DHT22;2800;49.528;8.666;2023-02-01T16:46:00;6.80;99.90
5554;DHT22;2800;49.528;8.666;2023-02-01T16:48:35;6.80;99.90
5554;DHT22;2800;49.528;8.666;2023-02-01T16:51:09;6.80;99.90
5554;DHT22;2800;49.528;8.666;2023-02-01T16:53:34;6.80;99.90
5554;DHT22;2800;49.528;8.666;2023-02-01T16:56:00;6.80;99.90
5554;DHT22;2800;49.528;8.666;2023-02-01T16:58:28;6.80;99.90
5554;DHT22;2800;49.528;8.666;2023-02-01T17:00:54;6.80;99.90
5554;DHT22;2800;49.528;8.666;2023-02-01T17:03:20;6.70;99.90
5554;DHT22;2800;49.528;8.666;2023-02-01T17:05:55;6.70;99.90
5554;DHT22;2800;49.528;8.666;2023-02-01T17:08:30;6.70;99.90
5554;DHT22;2800;49.528;8.666;2023-02-01T17:10:56;6.70;99.90
5554;DHT22;2800;49.528;8.666;2023-02-01T17:13:22;6.90;99.90
5554;DHT22;2800;49.528;8.666;2023-02-01T17:15:54;6.70;99.90
5554;DHT22;2800;49.528;8.666;2023-02-01T17:18:21;6.70;99.90
5554;DHT22;2800;49.528;8.666;2023-02-01T17:20:47;6.70;99.90
5554;DHT22;2800;49.528;8.666;2023-02-01T17:23:14;6.60;99.90
5554;DHT22;2800;49.528;8.666;2023-02-01T17:25:41;6.70;99.90
5554;DHT22;2800;49.528;8.666;2023-02-01T17:28:07;6.70;99.90
5554;DHT22;2800;49.528;8.666;2023-02-01T17:30:33;6.70;99.90
5554;DHT22;2800;49.528;8.666;2023-02-01T17:32:58;6.70;99.90
5554;DHT22;2800;49.528;8.666;2023-02-01T17:35:27;6.70;99.90
5554;DHT22;2800;49.528;8.666;2023-02-01T17:37:54;6.70;99.90
5554;DHT22;2800;49.528;8.666;2023-02-01T17:40:20;6.70;99.90
5554;DHT22;2800;49.528;8.666;2023-02-01T17:42:45;6.70;99.90
5554;DHT22;2800;49.528;8.666;2023-02-01T17:45:34;6.70;99.90
5554;DHT22;2800;49.528;8.666;2023-02-01T17:48:03;6.60;99.90
5554;DHT22;2800;49.528;8.666;2023-02-01T17:50:30;6.60;99.90
5554;DHT22;2800;49.528;8.666;2023-02-01T17:52:56;6.60;99.90
5554;DHT22;2800;49.528;8.666;2023-02-01T17:55:24;6.60;99.90
5554;DHT22;2800;49.528;8.666;2023-02-01T17:57:50;6.60;99.90
5554;DHT22;2800;49.528;8.666;2023-02-01T18:00:16;6.50;99.90
5554;DHT22;2800;49.528;8.666;2023-02-01T18:02:43;6.50;99.90
5554;DHT22;2800;49.528;8.666;2023-02-01T18:05:16;6.50;99.90
5554;DHT22;2800;49.528;8.666;2023-02-01T18:07:43;6.50;99.90
5554;DHT22;2800;49.528;8.666;2023-02-01T18:10:10;6.50;99.90
5554;DHT22;2800;49.528;8.666;2023-02-01T18:12:35;6.50;99.90
5554;DHT22;2800;49.528;8.666;2023-02-01T18:15:07;6.40;99.90
5554;DHT22;2800;49.528;8.666;2023-02-01T18:17:36;6.40;99.90
5554;DHT22;2800;49.528;8.666;2023-02-01T18:20:02;6.40;99.90
5554;DHT22;2800;49.528;8.666;2023-02-01T18:22:27;6.40;99.90
5554;DHT22;2800;49.528;8.666;2023-02-01T18:24:53;6.40;99.90
5554;DHT22;2800;49.528;8.666;2023-02-01T18:27:18;6.50;99.90
5554;DHT22;2800;49.528;8.666;2023-02-01T18:29:44;6.50;99.90
5554;DHT22;2800;49.528;8.666;2023-02-01T18:32:09;6.50;99.90
5554;DHT22;2800;49.528;8.666;2023-02-01T18:34:35;6.50;99.90
5554;DHT22;2800;49.528;8.666;2023-02-01T18:37:00;6.50;99.90
5554;DHT22;2800;49.528;8.666;2023-02-01T18:39:26;6.50;99.90
5554;DHT22;2800;49.528;8.666;2023-02-01T18:41:52;6.50;99.90
5554;DHT22;2800;49.528;8.666;2023-02-01T18:44:17;6.40;99.90
5554;DHT22;2800;49.528;8.666;2023-02-01T18:46:43;6.40;99.90